Fairfield, CA

9:35 PM PDT on September 20, 2014 (GMT -0700)
MesoWest | Change Station
CLOSE
Current Station
Personal Weather Station
Location: Travis Air Force Base, CA
Elevation: 33 ft
Nearby Weather Stations

Elev 33 ft 38.23 °N, 122.08 °W | Updated 1 hour ago

Clear
Clear
°F
Feels Like °F
N
15.0
Wind Variable Wind from West

Today
High -- | Low -- °F
--% Chance of Precip.
Yesterday
High -- | Low -- °F
Precip. -- in
6:54 AM 7:08 PM
Waning Crescent, 9% visible
Pressure 29.86 in
Visibility 10.0 miles
Clouds Clear
Dew Point Not available.
Humidity Not available.
Rainfall -9999.00 in
Snow Depth 0 in , 0 in , 1 in
UV 0 out of 12
Pollen 5.60 out of 12
Ozone Good
Flu Activity Not available.
METAR KSUU 210358Z AUTO 24023G29KT 10SM CLR 19/15 A2984 RMK AO2 PK WND 24030/38 SLP111 T01910152 PWINO PNO $

More Conditions Fewer Conditions

Pressure 29.86 in
Visibility 10.0 miles
Clouds Clear
Dew Point Not available.
Humidity Not available.
Rainfall -9999.00 in
Snow Depth 0 in , 0 in , 1 in
UV 0 out of 12
Pollen 5.60 out of 12
Ozone Good
Flu Activity Not available.
METAR KSUU 210358Z AUTO 24023G29KT 10SM CLR 19/15 A2984 RMK AO2 PK WND 24030/38 SLP111 T01910152 PWINO PNO $

More Conditions Fewer Conditions

10-Day Weather Forecast

Almanac

Astronomy

Sep. 20, 2014 Rise Set
Actual Time 6:54 AM PDT 7:08 PM PDT
Civil Twilight 6:28 AM PDT 7:34 PM PDT
Nautical Twilight 5:57 AM PDT 8:05 PM PDT
Astronomical Twilight 5:25 AM PDT 8:36 PM PDT
Moon 3:40 AM PDT (9/20) 5:12 PM PDT (9/20)
Length of Visible Light 13h 06m
Length of Day
12h 13m
Tomorrow will be 2m 26s shorter.
Waning Crescent, 9% of the Moon is Illuminated
Sep 21
Waning Crescent
Sep 24
New
Oct 1
First Quarter
Oct 8
Full
Oct 15
Last Quarter

Yesterday's Extremes

State Highs State Lows

Community

WunderPhotos

Upload Photos

1,755,081 photos uploaded!

Nearby

Air Quality

  Air Quality AQ Index Pollutant
Yesterday Good
OZONE
Current Good
OZONE
Saturday Moderate
PM2.5
Sunday Moderate
PM2.5
Monday Good
OZONE
Tuesday Good
OZONE
Wednesday Good
OZONE
Thursday Good
OZONE

Snow Depth

Station Depth Elevation
Summit Meadow 0 in 9122 ft
Tahoe City Cross 0 in 6750 ft
Spratt Creek 1 in 6200 ft
Monitor Pass 0 in 8350 ft
Leavitt Meadows 1 in 7200 ft

Earthquake Activity

City Distance Mag. Time & Date
Cloverdale, California 60 miles 2.5 9:15 PM PDT
2014-09-20
Livermore, California 42 miles 2.6 3:37 AM PDT
2014-09-19
The Geysers, California 50 miles 2.5 11:29 PM PDT
2014-09-17
Minimum magnitude displayed is 2.5.

Coastal Water Temperatures

Place Temperature
San Francisco, CA 64.9 °F
Richmond, CA 68.0 °F
Port Chicago, CA 70.0 °F

Nearby Weather Stations